createdAt,value
2023-02-02T00:01:21.752Z,10.00
2023-02-02T00:03:52.630Z,10.10
2023-02-02T00:06:22.514Z,10.10
2023-02-02T00:08:50.397Z,10.10
2023-02-02T00:11:19.218Z,10.10
2023-02-02T00:13:47.098Z,10.10
2023-02-02T00:16:26.753Z,10.10
2023-02-02T00:18:56.384Z,10.10
2023-02-02T00:21:24.643Z,10.10
2023-02-02T00:23:52.659Z,10.10
2023-02-02T00:26:21.429Z,10.20
2023-02-02T00:28:49.107Z,10.20
2023-02-02T00:31:17.070Z,10.20
2023-02-02T00:33:46.095Z,10.10
2023-02-02T00:36:14.195Z,10.20
2023-02-02T00:38:41.791Z,10.20
2023-02-02T00:41:09.866Z,10.20
2023-02-02T00:43:37.747Z,10.20
2023-02-02T00:46:06.416Z,10.20
2023-02-02T00:48:34.033Z,10.20
2023-02-02T00:51:02.344Z,10.20
2023-02-02T00:53:30.678Z,10.30
2023-02-02T00:55:58.330Z,10.30
2023-02-02T00:58:26.318Z,10.30
2023-02-02T01:00:53.995Z,10.30
2023-02-02T01:03:21.746Z,10.30
2023-02-02T01:05:51.529Z,10.30
2023-02-02T01:08:19.303Z,10.30
2023-02-02T01:10:47.101Z,10.30
2023-02-02T01:13:16.132Z,10.30
2023-02-02T01:15:44.147Z,10.30
2023-02-02T01:18:11.650Z,10.30
2023-02-02T01:20:39.170Z,10.30
2023-02-02T01:23:07.024Z,10.30
2023-02-02T01:25:38.522Z,10.30
2023-02-02T01:28:06.466Z,10.30
2023-02-02T01:30:33.899Z,10.30
2023-02-02T01:33:01.284Z,10.30
2023-02-02T01:35:28.864Z,10.30
2023-02-02T01:37:56.612Z,10.30
2023-02-02T01:40:24.062Z,10.40
2023-02-02T01:42:51.481Z,10.40
2023-02-02T01:45:29.199Z,10.40
2023-02-02T01:47:59.937Z,10.40
2023-02-02T01:50:34.504Z,10.40
2023-02-02T01:53:04.825Z,10.40
2023-02-02T01:55:34.663Z,10.40
2023-02-02T01:58:09.698Z,10.40
2023-02-02T02:00:39.636Z,10.40
2023-02-02T02:03:12.294Z,10.30
2023-02-02T02:06:08.223Z,10.30
2023-02-02T02:08:52.176Z,10.30
2023-02-02T02:11:21.640Z,10.20
2023-02-02T02:14:09.471Z,10.20
2023-02-02T02:17:03.385Z,10.20
2023-02-02T02:19:37.031Z,10.20
2023-02-02T02:22:35.468Z,10.20
2023-02-02T02:25:51.412Z,10.10
2023-02-02T02:28:47.799Z,10.10
2023-02-02T02:31:15.626Z,10.00
2023-02-02T02:34:05.375Z,10.00
2023-02-02T02:36:49.695Z,10.00
2023-02-02T02:39:21.136Z,9.90
2023-02-02T02:41:52.619Z,9.90
2023-02-02T02:44:21.924Z,9.90
2023-02-02T02:46:50.900Z,9.90
2023-02-02T02:49:19.126Z,9.80
2023-02-02T02:51:49.815Z,9.80
2023-02-02T02:54:33.297Z,9.80
2023-02-02T02:57:10.569Z,9.80
2023-02-02T02:59:53.354Z,9.80
2023-02-02T03:02:48.973Z,9.80
2023-02-02T03:05:35.093Z,9.80
2023-02-02T03:08:25.517Z,9.80
2023-02-02T03:10:55.854Z,9.80
2023-02-02T03:13:24.517Z,9.70
2023-02-02T03:15:52.651Z,9.80
2023-02-02T03:18:24.044Z,9.80
2023-02-02T03:20:51.486Z,9.80
2023-02-02T03:23:19.510Z,9.80
2023-02-02T03:25:47.713Z,9.80
2023-02-02T03:28:17.521Z,9.80
2023-02-02T03:30:46.319Z,9.90
2023-02-02T03:33:15.689Z,9.90
2023-02-02T03:35:43.313Z,9.90
2023-02-02T03:38:12.597Z,9.90
2023-02-02T03:40:40.915Z,9.90
2023-02-02T03:43:08.858Z,9.90
2023-02-02T03:45:37.346Z,9.90
2023-02-02T03:48:05.858Z,9.80
2023-02-02T03:50:34.110Z,9.80
2023-02-02T03:53:01.902Z,9.80
2023-02-02T03:55:29.518Z,9.80
2023-02-02T03:57:57.343Z,9.70
2023-02-02T04:00:25.231Z,9.70
2023-02-02T04:02:54.045Z,9.70
2023-02-02T04:05:22.099Z,9.70
2023-02-02T04:07:50.112Z,9.60
2023-02-02T04:10:18.597Z,9.60
2023-02-02T04:12:46.658Z,9.60
2023-02-02T04:15:14.525Z,9.60
2023-02-02T04:17:42.233Z,9.50
2023-02-02T04:20:10.848Z,9.50
2023-02-02T04:22:38.417Z,9.50
2023-02-02T04:25:06.488Z,9.40
2023-02-02T04:27:34.405Z,9.40
2023-02-02T04:30:02.234Z,9.40
2023-02-02T04:32:30.765Z,9.40
2023-02-02T04:34:58.250Z,9.30
2023-02-02T04:37:25.774Z,9.30
2023-02-02T04:39:55.337Z,9.30
2023-02-02T04:42:22.892Z,9.30
2023-02-02T04:44:50.365Z,9.20
2023-02-02T04:47:18.092Z,9.20
2023-02-02T04:49:45.679Z,9.20
2023-02-02T04:52:13.188Z,9.20
2023-02-02T04:54:40.768Z,9.20
2023-02-02T04:57:08.597Z,9.10
2023-02-02T04:59:36.241Z,9.10
2023-02-02T05:02:03.885Z,9.10
2023-02-02T05:04:31.551Z,9.10
2023-02-02T05:06:59.181Z,9.10
2023-02-02T05:09:26.976Z,9.10
2023-02-02T05:11:54.726Z,9.00
2023-02-02T05:14:22.485Z,9.10
2023-02-02T05:16:50.238Z,9.00
2023-02-02T05:19:18.008Z,9.00
2023-02-02T05:21:49.992Z,9.00
2023-02-02T05:24:18.493Z,9.00
2023-02-02T05:26:46.328Z,8.90
2023-02-02T05:29:14.038Z,8.90
2023-02-02T05:31:41.652Z,8.90
2023-02-02T05:34:11.523Z,8.90
2023-02-02T05:36:38.994Z,8.90
2023-02-02T05:39:06.471Z,8.90
2023-02-02T05:41:34.033Z,8.80
2023-02-02T05:44:02.155Z,8.80
2023-02-02T05:46:30.270Z,8.80
2023-02-02T05:48:59.290Z,8.80
2023-02-02T05:51:33.417Z,8.80
2023-02-02T05:54:01.170Z,8.80
2023-02-02T05:56:28.611Z,8.70
2023-02-02T05:58:55.996Z,8.70
2023-02-02T06:01:23.673Z,8.70
2023-02-02T06:03:51.418Z,8.70
2023-02-02T06:06:19.061Z,8.70
2023-02-02T06:08:46.620Z,8.70
2023-02-02T06:11:16.966Z,8.70
2023-02-02T06:13:46.060Z,8.70
2023-02-02T06:16:13.850Z,8.60
2023-02-02T06:18:41.459Z,8.60
2023-02-02T06:21:10.108Z,8.70
2023-02-02T06:23:38.552Z,8.60
2023-02-02T06:26:08.184Z,8.70
2023-02-02T06:28:35.712Z,8.60
2023-02-02T06:31:08.113Z,8.60
2023-02-02T06:33:35.967Z,8.60
2023-02-02T06:36:05.720Z,8.70
2023-02-02T06:38:33.229Z,8.60
2023-02-02T06:41:01.743Z,8.60
2023-02-02T06:43:30.395Z,8.60
2023-02-02T06:45:58.720Z,8.60
2023-02-02T06:48:27.512Z,8.60
2023-02-02T06:51:00.125Z,8.60
2023-02-02T06:53:27.814Z,8.60
2023-02-02T06:55:57.724Z,8.60
2023-02-02T06:58:25.475Z,8.60
2023-02-02T07:00:53.570Z,8.60
2023-02-02T07:03:22.164Z,8.60
2023-02-02T07:05:50.119Z,8.60
2023-02-02T07:08:18.031Z,8.60
2023-02-02T07:11:14.737Z,8.60
2023-02-02T07:13:33.490Z,8.60
2023-02-02T07:16:02.592Z,8.60
2023-02-02T07:18:30.456Z,8.60
2023-02-02T07:21:01.531Z,8.60
2023-02-02T07:23:30.433Z,8.60
2023-02-02T07:26:01.851Z,8.60
2023-02-02T07:28:30.005Z,8.60
2023-02-02T07:30:57.959Z,8.60
2023-02-02T07:33:25.709Z,8.60
2023-02-02T07:35:53.542Z,8.60
2023-02-02T07:38:21.025Z,8.60
2023-02-02T07:40:48.507Z,8.60
2023-02-02T07:43:15.962Z,8.60
2023-02-02T07:45:43.370Z,8.60
2023-02-02T07:48:10.814Z,8.50
2023-02-02T07:50:38.196Z,8.50
2023-02-02T07:53:05.633Z,8.50
2023-02-02T07:55:33.040Z,8.50
2023-02-02T07:58:01.649Z,8.50
2023-02-02T08:00:29.609Z,8.60
2023-02-02T08:02:57.350Z,8.60
2023-02-02T08:05:25.181Z,8.60
2023-02-02T08:07:53.041Z,8.60
2023-02-02T08:10:20.499Z,8.70
2023-02-02T08:12:48.106Z,8.70
2023-02-02T08:15:15.765Z,8.70
2023-02-02T08:17:49.811Z,8.70
2023-02-02T08:20:17.769Z,8.80
2023-02-02T08:22:45.687Z,8.80
2023-02-02T08:25:13.202Z,8.80
2023-02-02T08:27:40.644Z,8.80
2023-02-02T08:30:08.892Z,8.90
2023-02-02T08:32:36.611Z,8.90
2023-02-02T08:35:04.414Z,8.90
2023-02-02T08:37:31.918Z,9.00
2023-02-02T08:39:59.787Z,9.00
2023-02-02T08:42:27.324Z,9.10
2023-02-02T08:46:02.185Z,9.10
2023-02-02T08:47:42.804Z,9.20
2023-02-02T08:50:11.133Z,9.20
2023-02-02T08:52:38.593Z,9.20
2023-02-02T08:55:07.137Z,9.40
2023-02-02T08:57:34.708Z,9.30
2023-02-02T09:00:03.647Z,9.40
2023-02-02T09:02:31.236Z,9.40
2023-02-02T09:04:58.720Z,9.50
2023-02-02T09:07:26.270Z,9.50
2023-02-02T09:09:55.762Z,9.60
2023-02-02T09:12:23.207Z,9.60
2023-02-02T09:14:50.605Z,9.60
2023-02-02T09:17:18.110Z,9.70
2023-02-02T09:19:45.768Z,9.70
2023-02-02T09:22:13.241Z,9.80
2023-02-02T09:24:40.622Z,9.80
2023-02-02T09:27:08.066Z,9.90
2023-02-02T09:29:35.745Z,9.90
2023-02-02T09:32:03.481Z,10.00
2023-02-02T09:34:31.154Z,10.10
2023-02-02T09:36:58.604Z,10.10
2023-02-02T09:39:26.152Z,10.20
2023-02-02T09:42:09.506Z,10.20
2023-02-02T09:44:52.100Z,10.30
2023-02-02T09:47:37.566Z,10.40
2023-02-02T09:50:16.939Z,10.50
2023-02-02T09:52:53.335Z,10.50
2023-02-02T09:55:30.640Z,10.60
2023-02-02T09:58:24.527Z,10.70
2023-02-02T10:01:24.877Z,10.70
2023-02-02T10:04:07.744Z,10.80
2023-02-02T10:06:48.175Z,10.90
2023-02-02T10:09:43.644Z,10.90
2023-02-02T10:12:47.381Z,11.00
2023-02-02T10:16:01.595Z,11.10
2023-02-02T10:18:53.608Z,11.20
2023-02-02T10:21:33.411Z,11.30
2023-02-02T10:24:03.695Z,11.30
2023-02-02T10:26:42.237Z,11.40
2023-02-02T10:29:18.985Z,11.40
2023-02-02T10:32:11.104Z,11.50
2023-02-02T10:34:42.927Z,11.60
2023-02-02T10:37:20.595Z,11.60
2023-02-02T10:40:14.840Z,11.60
2023-02-02T10:43:48.425Z,11.70
2023-02-02T10:46:46.116Z,11.70
2023-02-02T10:49:39.981Z,11.80
2023-02-02T10:52:11.094Z,11.90
2023-02-02T10:54:57.285Z,11.90
2023-02-02T10:57:39.739Z,11.90
2023-02-02T11:00:15.267Z,12.00
2023-02-02T11:02:43.325Z,12.00
2023-02-02T11:05:49.826Z,12.10
2023-02-02T11:08:27.931Z,12.10
2023-02-02T11:10:58.354Z,12.10
2023-02-02T11:13:33.940Z,12.10
2023-02-02T11:16:17.331Z,12.20
2023-02-02T11:18:45.989Z,12.30
2023-02-02T11:21:22.465Z,12.40
2023-02-02T11:24:24.605Z,12.40
2023-02-02T11:27:07.738Z,12.50
2023-02-02T11:29:44.686Z,12.50
2023-02-02T11:32:25.272Z,12.70
2023-02-02T11:35:08.196Z,12.80
2023-02-02T11:37:52.207Z,12.90
2023-02-02T11:40:27.310Z,13.10
2023-02-02T11:43:01.353Z,13.20
2023-02-02T11:45:42.080Z,13.40
2023-02-02T11:48:19.609Z,13.50
2023-02-02T11:50:53.856Z,13.70
2023-02-02T11:53:41.414Z,13.80
2023-02-02T11:56:18.518Z,13.90
2023-02-02T11:58:51.141Z,14.00
2023-02-02T12:01:28.043Z,14.10
2023-02-02T12:03:58.146Z,14.10
2023-02-02T12:06:33.590Z,14.10
2023-02-02T12:09:09.439Z,14.10
2023-02-02T12:11:58.422Z,14.10
2023-02-02T12:14:31.899Z,14.20
2023-02-02T12:17:14.592Z,14.30
2023-02-02T12:20:00.982Z,14.30
2023-02-02T12:22:58.519Z,14.30
2023-02-02T12:25:47.103Z,14.30
2023-02-02T12:28:42.059Z,14.30
2023-02-02T12:31:34.187Z,14.30
2023-02-02T12:34:09.554Z,14.30
2023-02-02T12:37:03.323Z,14.30
2023-02-02T12:39:43.993Z,14.20
2023-02-02T12:42:33.065Z,14.10
2023-02-02T12:45:25.251Z,14.00
2023-02-02T12:48:01.546Z,14.00
2023-02-02T12:50:37.300Z,13.90
2023-02-02T12:53:13.945Z,13.90
2023-02-02T12:55:57.183Z,13.90
2023-02-02T12:58:49.797Z,13.80
2023-02-02T13:01:24.019Z,13.80
2023-02-02T13:04:07.090Z,13.90
2023-02-02T13:07:22.499Z,13.80
2023-02-02T13:10:01.800Z,13.80
2023-02-02T13:12:34.647Z,13.80
2023-02-02T13:15:08.701Z,13.80
2023-02-02T13:17:41.744Z,13.80
2023-02-02T13:20:25.837Z,13.80
2023-02-02T13:22:57.254Z,13.80
2023-02-02T13:25:31.594Z,13.70
2023-02-02T13:28:00.642Z,13.70
2023-02-02T13:30:31.653Z,13.70
2023-02-02T13:33:03.448Z,13.70
2023-02-02T13:35:57.995Z,13.70
2023-02-02T13:38:30.372Z,13.70
2023-02-02T13:41:03.294Z,13.60
2023-02-02T13:43:39.890Z,13.60
2023-02-02T13:46:33.352Z,13.60
2023-02-02T13:49:30.151Z,13.60
2023-02-02T13:52:25.916Z,13.50
2023-02-02T13:55:39.167Z,13.50
2023-02-02T13:58:41.621Z,13.50
2023-02-02T14:01:12.347Z,13.50
2023-02-02T14:03:54.078Z,13.40
2023-02-02T14:06:24.412Z,13.40
2023-02-02T14:08:55.267Z,13.30
2023-02-02T14:11:28.169Z,13.40
2023-02-02T14:14:35.382Z,13.40
2023-02-02T14:17:28.637Z,13.30
2023-02-02T14:20:01.253Z,13.30
2023-02-02T14:22:48.079Z,13.20
2023-02-02T14:25:33.450Z,13.20
2023-02-02T14:28:03.008Z,13.20
2023-02-02T14:30:38.729Z,13.20
2023-02-02T14:33:21.270Z,13.20
2023-02-02T14:35:48.663Z,13.20
2023-02-02T14:38:30.717Z,13.20
2023-02-02T14:41:39.227Z,13.20
2023-02-02T14:44:06.751Z,13.20
2023-02-02T14:46:38.270Z,13.10
2023-02-02T14:49:10.438Z,13.10
2023-02-02T14:51:51.447Z,13.10
2023-02-02T14:54:21.733Z,13.20
2023-02-02T14:56:54.347Z,13.10
2023-02-02T14:59:45.291Z,13.10
2023-02-02T15:02:12.631Z,13.20
2023-02-02T15:04:40.104Z,13.20
2023-02-02T15:07:31.010Z,13.20
2023-02-02T15:09:58.524Z,13.20
2023-02-02T15:12:29.927Z,13.20
2023-02-02T15:15:29.646Z,13.20
2023-02-02T15:17:58.016Z,13.20
2023-02-02T15:20:29.701Z,13.20
2023-02-02T15:23:08.139Z,13.20
2023-02-02T15:25:53.748Z,13.20
2023-02-02T15:28:46.000Z,13.20
2023-02-02T15:31:39.521Z,13.20
2023-02-02T15:34:42.629Z,13.20
2023-02-02T15:37:15.962Z,13.20
2023-02-02T15:39:48.666Z,13.10
2023-02-02T15:42:42.232Z,13.10
2023-02-02T15:45:28.230Z,13.10
2023-02-02T15:47:58.083Z,13.10
2023-02-02T15:50:26.925Z,13.10
2023-02-02T15:52:55.231Z,13.10
2023-02-02T15:55:29.799Z,13.10
2023-02-02T15:57:57.358Z,13.10
2023-02-02T16:00:28.492Z,13.10
2023-02-02T16:03:03.229Z,13.00
2023-02-02T16:05:36.481Z,13.10
2023-02-02T16:08:13.837Z,13.00
2023-02-02T16:10:41.420Z,13.00
2023-02-02T16:13:27.588Z,13.00
2023-02-02T16:16:00.651Z,13.00
2023-02-02T16:18:29.303Z,13.00
2023-02-02T16:20:59.529Z,13.00
2023-02-02T16:23:33.168Z,12.90
2023-02-02T16:26:04.896Z,12.90
2023-02-02T16:28:32.857Z,12.90
2023-02-02T16:31:02.331Z,12.90
2023-02-02T16:33:44.657Z,12.90
2023-02-02T16:36:25.097Z,12.90
2023-02-02T16:38:55.105Z,12.80
2023-02-02T16:41:34.378Z,12.80
2023-02-02T16:44:42.808Z,12.80
2023-02-02T16:47:31.801Z,12.80
2023-02-02T16:50:08.578Z,12.70
2023-02-02T16:52:59.862Z,12.70
2023-02-02T16:55:43.630Z,12.70
2023-02-02T16:58:20.718Z,12.60
2023-02-02T17:01:16.675Z,12.50
2023-02-02T17:03:55.108Z,12.50
2023-02-02T17:06:35.804Z,12.50
2023-02-02T17:09:37.485Z,12.50
2023-02-02T17:12:34.816Z,12.50
2023-02-02T17:15:28.721Z,12.50
2023-02-02T17:17:56.832Z,12.50
2023-02-02T17:20:24.896Z,12.40
2023-02-02T17:23:00.830Z,12.40
2023-02-02T17:25:42.749Z,12.50
2023-02-02T17:28:13.063Z,12.50
2023-02-02T17:30:45.753Z,12.40
2023-02-02T17:33:15.708Z,12.40
2023-02-02T17:35:54.108Z,12.40
2023-02-02T17:38:24.292Z,12.40
2023-02-02T17:40:52.772Z,12.40
2023-02-02T17:43:20.214Z,12.40
2023-02-02T17:45:47.933Z,12.40
2023-02-02T17:48:15.529Z,12.40
2023-02-02T17:50:43.749Z,12.40
2023-02-02T17:53:13.267Z,12.40
2023-02-02T17:55:42.624Z,12.40
2023-02-02T17:58:13.081Z,12.40
2023-02-02T18:00:41.288Z,12.40
2023-02-02T18:03:27.667Z,12.40
2023-02-02T18:05:57.540Z,12.30
2023-02-02T18:08:25.072Z,12.30
2023-02-02T18:10:52.491Z,12.30
2023-02-02T18:13:21.815Z,12.30
2023-02-02T18:15:50.829Z,12.30
2023-02-02T18:18:18.516Z,12.30
2023-02-02T18:20:49.507Z,12.30
2023-02-02T18:23:18.100Z,12.20
2023-02-02T18:25:46.343Z,12.20
2023-02-02T18:28:17.324Z,12.20
2023-02-02T18:30:47.259Z,12.20
2023-02-02T18:33:17.782Z,12.20
2023-02-02T18:35:46.301Z,12.20
2023-02-02T18:38:14.718Z,12.20
2023-02-02T18:40:42.544Z,12.20
2023-02-02T18:43:10.414Z,12.20
2023-02-02T18:45:38.018Z,12.20
2023-02-02T18:48:05.631Z,12.20
2023-02-02T18:50:32.996Z,12.20
2023-02-02T18:53:00.476Z,12.20
2023-02-02T18:55:28.293Z,12.20
2023-02-02T18:57:56.264Z,12.20
2023-02-02T19:00:24.142Z,12.20
2023-02-02T19:02:51.839Z,12.20
2023-02-02T19:05:38.309Z,12.20
2023-02-02T19:08:06.131Z,12.20
2023-02-02T19:10:33.845Z,12.20
2023-02-02T19:13:19.431Z,12.20
2023-02-02T19:15:49.089Z,12.20
2023-02-02T19:18:21.991Z,12.20
2023-02-02T19:20:51.018Z,12.20
2023-02-02T19:23:20.036Z,12.20
2023-02-02T19:25:51.596Z,12.20
2023-02-02T19:28:28.274Z,12.20
2023-02-02T19:31:01.309Z,12.20
2023-02-02T19:33:42.669Z,12.20
2023-02-02T19:36:21.827Z,12.10
2023-02-02T19:38:58.769Z,12.10
2023-02-02T19:41:29.045Z,12.10
2023-02-02T19:44:01.251Z,12.10
2023-02-02T19:46:30.794Z,12.10
2023-02-02T19:49:12.236Z,12.10
2023-02-02T19:51:43.751Z,12.10
2023-02-02T19:54:34.583Z,12.00
2023-02-02T19:57:15.420Z,12.10
2023-02-02T19:59:45.320Z,12.10
2023-02-02T20:02:34.335Z,12.10
2023-02-02T20:05:47.846Z,12.10
2023-02-02T20:08:26.527Z,12.10
2023-02-02T20:11:23.654Z,12.00
2023-02-02T20:13:51.808Z,12.00
2023-02-02T20:16:21.778Z,12.10
2023-02-02T20:18:56.954Z,12.10
2023-02-02T20:21:45.117Z,12.10
2023-02-02T20:24:40.275Z,12.10
2023-02-02T20:27:18.478Z,12.10
2023-02-02T20:29:48.101Z,12.10
2023-02-02T20:32:21.822Z,12.10
2023-02-02T20:34:50.998Z,12.10
2023-02-02T20:37:25.203Z,12.10
2023-02-02T20:40:01.133Z,12.10
2023-02-02T20:42:29.043Z,12.10
2023-02-02T20:44:58.214Z,12.10
2023-02-02T20:47:25.755Z,12.10
2023-02-02T20:49:53.230Z,12.10
2023-02-02T20:52:24.040Z,12.10
2023-02-02T20:54:51.931Z,12.10
2023-02-02T20:57:19.409Z,12.10
2023-02-02T20:59:46.782Z,12.10
2023-02-02T21:02:19.036Z,12.10
2023-02-02T21:04:51.179Z,12.10
2023-02-02T21:07:21.351Z,12.10
2023-02-02T21:09:50.600Z,12.10
2023-02-02T21:12:18.458Z,12.10
2023-02-02T21:14:46.110Z,12.20
2023-02-02T21:17:15.634Z,12.10
2023-02-02T21:19:43.812Z,12.10
2023-02-02T21:22:12.176Z,12.10
2023-02-02T21:24:40.361Z,12.10
2023-02-02T21:27:08.896Z,12.10
2023-02-02T21:29:36.409Z,12.10
2023-02-02T21:32:04.143Z,12.00
2023-02-02T21:34:32.164Z,12.10
2023-02-02T21:36:59.663Z,12.10
2023-02-02T21:39:37.434Z,12.00
2023-02-02T21:42:07.899Z,12.00
2023-02-02T21:44:36.353Z,12.00
2023-02-02T21:47:19.302Z,12.00
2023-02-02T21:49:46.703Z,11.90
2023-02-02T21:52:18.668Z,11.90
2023-02-02T21:54:47.107Z,11.90
2023-02-02T21:57:34.563Z,11.90
2023-02-02T22:00:17.070Z,11.90
2023-02-02T22:02:48.856Z,11.80
2023-02-02T22:05:26.201Z,11.80
2023-02-02T22:07:57.757Z,11.80
2023-02-02T22:10:38.814Z,11.70
2023-02-02T22:13:32.314Z,11.70
2023-02-02T22:15:59.687Z,11.60
2023-02-02T22:18:29.239Z,11.50
2023-02-02T22:20:56.894Z,11.60
2023-02-02T22:23:28.236Z,11.60
2023-02-02T22:25:57.939Z,11.50
2023-02-02T22:28:29.809Z,11.50
2023-02-02T22:30:58.741Z,11.50
2023-02-02T22:33:26.684Z,11.50
2023-02-02T22:35:54.378Z,11.50
2023-02-02T22:38:23.945Z,11.50
2023-02-02T22:40:52.782Z,11.40
2023-02-02T22:43:21.461Z,11.40
2023-02-02T22:45:49.193Z,11.40
2023-02-02T22:48:17.090Z,11.40
2023-02-02T22:50:44.887Z,11.40
2023-02-02T22:53:13.995Z,11.40
2023-02-02T22:55:41.458Z,11.40
2023-02-02T22:58:09.011Z,11.40
2023-02-02T23:00:37.667Z,11.40
2023-02-02T23:03:05.602Z,11.40
2023-02-02T23:05:33.561Z,11.30
2023-02-02T23:08:01.174Z,11.40
2023-02-02T23:10:34.938Z,11.30
2023-02-02T23:13:04.236Z,11.30
2023-02-02T23:15:32.187Z,11.30
2023-02-02T23:17:59.930Z,11.30
2023-02-02T23:20:28.041Z,11.30
2023-02-02T23:22:55.743Z,11.30
2023-02-02T23:25:23.578Z,11.20
2023-02-02T23:27:51.473Z,11.20
2023-02-02T23:30:22.050Z,11.20
2023-02-02T23:32:50.147Z,11.20
2023-02-02T23:35:18.118Z,11.10
2023-02-02T23:37:45.900Z,11.10
2023-02-02T23:40:13.930Z,11.10
2023-02-02T23:42:41.641Z,11.10
2023-02-02T23:45:10.814Z,11.10
2023-02-02T23:47:38.423Z,11.00
2023-02-02T23:50:09.260Z,11.00
2023-02-02T23:52:37.573Z,11.00
2023-02-02T23:55:05.826Z,11.00
2023-02-02T23:57:33.874Z,11.00
